createdAt,value
2018-06-04T00:04:51.396Z,0
2018-06-04T00:09:51.443Z,0
2018-06-04T00:14:51.576Z,0
2018-06-04T00:19:51.466Z,0
2018-06-04T00:24:51.592Z,0
2018-06-04T00:29:51.638Z,0
2018-06-04T00:34:51.437Z,0
2018-06-04T00:39:51.346Z,0
2018-06-04T00:44:51.505Z,0
2018-06-04T00:49:51.345Z,0
2018-06-04T00:54:51.383Z,0
2018-06-04T00:59:51.216Z,0
2018-06-04T01:04:51.426Z,0
2018-06-04T01:09:51.452Z,0
2018-06-04T01:14:51.273Z,0
2018-06-04T01:19:51.293Z,0
2018-06-04T01:24:51.321Z,0
2018-06-04T01:29:51.299Z,0
2018-06-04T01:34:51.247Z,0
2018-06-04T01:39:51.438Z,0
2018-06-04T01:44:51.458Z,0
2018-06-04T01:49:51.357Z,0
2018-06-04T01:54:51.264Z,0
2018-06-04T01:59:51.360Z,0
2018-06-04T02:04:51.225Z,0
2018-06-04T02:09:51.287Z,0
2018-06-04T02:14:51.168Z,0
2018-06-04T02:19:51.452Z,0
2018-06-04T02:24:51.295Z,0
2018-06-04T02:29:51.183Z,0
2018-06-04T02:34:51.158Z,0
2018-06-04T02:39:51.312Z,0
2018-06-04T02:44:51.221Z,0
2018-06-04T02:49:51.256Z,0
2018-06-04T02:54:51.298Z,0
2018-06-04T02:59:51.377Z,0
2018-06-04T03:04:51.159Z,0
2018-06-04T03:09:51.066Z,0
2018-06-04T03:14:51.056Z,0
2018-06-04T03:19:51.071Z,0.8
2018-06-04T03:24:51.315Z,0.8
2018-06-04T03:29:51.224Z,1.7
2018-06-04T03:34:51.365Z,2.5
2018-06-04T03:39:51.036Z,3.3
2018-06-04T03:44:51.123Z,5
2018-06-04T03:49:51.337Z,6.7
2018-06-04T03:54:51.054Z,8.3
2018-06-04T03:59:51.109Z,10.8
2018-06-04T04:04:50.970Z,13.3
2018-06-04T04:09:50.984Z,15.8
2018-06-04T04:14:50.950Z,20
2018-06-04T04:19:51.093Z,22.5
2018-06-04T04:24:50.948Z,25.8
2018-06-04T04:29:50.948Z,29.2
2018-06-04T04:34:51.244Z,30.8
2018-06-04T04:39:50.942Z,34.2
2018-06-04T04:44:50.920Z,32.5
2018-06-04T04:49:51.213Z,35
2018-06-04T04:54:51.157Z,40
2018-06-04T04:59:50.876Z,43.3
2018-06-04T05:04:51.008Z,46.7
2018-06-04T05:09:50.941Z,50
2018-06-04T05:14:51.184Z,48.3
2018-06-04T05:19:50.941Z,54.2
2018-06-04T05:24:50.855Z,60.8
2018-06-04T05:29:51.048Z,65.8
2018-06-04T05:34:51.058Z,87.5
2018-06-04T05:39:51.069Z,94.2
2018-06-04T05:44:51.110Z,102.5
2018-06-04T05:49:50.890Z,98.3
2018-06-04T05:54:50.952Z,108.3
2018-06-04T05:59:50.868Z,107.5
2018-06-04T06:04:51.115Z,119.2
2018-06-04T06:09:50.939Z,124.2
2018-06-04T06:14:51.098Z,106.7
2018-06-04T06:19:50.952Z,115
2018-06-04T06:24:51.088Z,134.2
2018-06-04T06:29:50.982Z,136.7
2018-06-04T06:34:50.913Z,147.5
2018-06-04T06:39:50.864Z,139.2
2018-06-04T06:44:50.879Z,162.5
2018-06-04T06:49:50.881Z,164.2
2018-06-04T06:54:50.824Z,165
2018-06-04T06:59:51.036Z,164.2
2018-06-04T07:04:50.780Z,160.8
2018-06-04T07:09:50.896Z,162.5
2018-06-04T07:14:50.721Z,169.2
2018-06-04T07:19:50.749Z,178.3
2018-06-04T07:24:50.961Z,179.2
2018-06-04T07:29:50.791Z,189.2
2018-06-04T07:34:50.806Z,188.3
2018-06-04T07:39:50.997Z,192.5
2018-06-04T07:44:50.777Z,200.8
2018-06-04T07:49:50.928Z,225
2018-06-04T07:54:50.701Z,200
2018-06-04T07:59:50.851Z,185.8
2018-06-04T08:04:50.963Z,217.5
2018-06-04T08:09:50.788Z,220.8
2018-06-04T08:14:50.797Z,227.5
2018-06-04T08:19:50.919Z,229.2
2018-06-04T08:24:50.597Z,206.7
2018-06-04T08:29:50.700Z,172.5
2018-06-04T08:34:50.814Z,179.2
2018-06-04T08:39:51.335Z,187.5
2018-06-04T08:44:50.675Z,202.5
2018-06-04T08:49:50.629Z,214.2
2018-06-04T08:54:50.719Z,214.2
2018-06-04T08:59:50.582Z,222.5
2018-06-04T09:04:50.603Z,183.3
2018-06-04T09:09:50.718Z,131.7
2018-06-04T09:14:50.639Z,140.8
2018-06-04T09:19:50.663Z,155.8
2018-06-04T09:24:50.617Z,145.8
2018-06-04T09:29:50.538Z,177.5
2018-06-04T09:34:50.882Z,190
2018-06-04T09:39:50.506Z,180
2018-06-04T09:44:50.529Z,179.2
2018-06-04T09:49:50.674Z,165.8
2018-06-04T09:54:50.794Z,217.5
2018-06-04T09:59:50.719Z,260.8
2018-06-04T10:04:50.806Z,275
2018-06-04T10:09:50.764Z,308.3
2018-06-04T10:14:50.702Z,280.8
2018-06-04T10:19:50.419Z,220
2018-06-04T10:24:50.604Z,307.5
2018-06-04T10:29:50.530Z,282.5
2018-06-04T10:34:50.666Z,356.7
2018-06-04T10:39:50.602Z,423.3
2018-06-04T10:44:50.509Z,419.2
2018-06-04T10:49:50.425Z,436.7
2018-06-04T10:54:50.606Z,437.5
2018-06-04T10:59:50.619Z,1282.5
2018-06-04T11:04:50.779Z,305.8
2018-06-04T11:09:50.517Z,475.8
2018-06-04T11:14:50.867Z,1174.2
2018-06-04T11:19:50.660Z,465
2018-06-04T11:24:50.312Z,381.7
2018-06-04T11:29:50.567Z,1169.2
2018-06-04T11:34:50.499Z,1215.8
2018-06-04T11:39:50.306Z,405
2018-06-04T11:44:50.464Z,335
2018-06-04T11:49:50.453Z,1558.3
2018-06-04T11:54:50.517Z,1077.5
2018-06-04T11:59:50.376Z,1423.3
2018-06-04T12:04:50.271Z,1614.2
2018-06-04T12:09:50.539Z,1513.3
2018-06-04T12:14:50.319Z,1675
2018-06-04T12:19:50.453Z,1647.5
2018-06-04T12:24:50.394Z,1561.7
2018-06-04T12:29:50.347Z,1721.7
2018-06-04T12:34:50.537Z,1705
2018-06-04T12:39:50.383Z,1632.5
2018-06-04T12:44:50.397Z,1584.2
2018-06-04T12:49:50.543Z,1224.2
2018-06-04T12:54:50.305Z,1740
2018-06-04T12:59:50.236Z,1786.7
2018-06-04T13:04:50.252Z,1670.8
2018-06-04T13:09:50.449Z,1845.8
2018-06-04T13:14:50.281Z,1905
2018-06-04T13:19:50.317Z,1882.5
2018-06-04T13:24:50.266Z,1889.2
2018-06-04T13:29:50.268Z,1928.3
2018-06-04T13:34:50.490Z,1884.2
2018-06-04T13:39:50.360Z,1885
2018-06-04T13:44:50.185Z,1827.5
2018-06-04T13:49:50.361Z,1790.8
2018-06-04T13:54:50.430Z,1821.7
2018-06-04T13:59:50.222Z,1776.7
2018-06-04T14:04:50.248Z,1737.5
2018-06-04T14:09:50.142Z,1717.5
2018-06-04T14:14:50.363Z,1682.5
2018-06-04T14:19:50.267Z,1631.7
2018-06-04T14:24:50.328Z,1533.3
2018-06-04T14:29:50.356Z,1644.2
2018-06-04T14:34:50.425Z,1620.8
2018-06-04T14:39:50.096Z,1592.5
2018-06-04T14:44:50.219Z,1535
2018-06-04T14:49:50.215Z,1489.2
2018-06-04T14:54:50.028Z,1490
2018-06-04T14:59:50.142Z,1493.3
2018-06-04T15:04:50.195Z,1465.8
2018-06-04T15:09:50.302Z,1391.7
2018-06-04T15:14:50.088Z,1345.8
2018-06-04T15:19:50.247Z,1305
2018-06-04T15:24:49.991Z,1202.5
2018-06-04T15:29:49.948Z,1200.8
2018-06-04T15:34:50.010Z,1141.7
2018-06-04T15:39:50.266Z,1040.8
2018-06-04T15:44:50.301Z,927.5
2018-06-04T15:49:49.963Z,788.3
2018-06-04T15:54:49.981Z,370.8
2018-06-04T15:59:50.022Z,295
2018-06-04T16:04:50.099Z,255
2018-06-04T16:09:50.003Z,232.5
2018-06-04T16:14:50.145Z,162.5
2018-06-04T16:19:49.961Z,149.2
2018-06-04T16:24:49.964Z,160
2018-06-04T16:29:50.201Z,183.3
2018-06-04T16:34:49.977Z,146.7
2018-06-04T16:39:50.179Z,150.8
2018-06-04T16:44:49.992Z,186.7
2018-06-04T16:49:50.190Z,140.8
2018-06-04T16:54:50.052Z,155.8
2018-06-04T16:59:49.868Z,175
2018-06-04T17:04:50.015Z,153.3
2018-06-04T17:09:50.039Z,137.5
2018-06-04T17:14:49.910Z,110.8
2018-06-04T17:19:50.179Z,72.5
2018-06-04T17:24:49.921Z,78.3
2018-06-04T17:29:49.874Z,127.5
2018-06-04T17:34:50.011Z,171.7
2018-06-04T17:39:49.862Z,133.3
2018-06-04T17:44:49.833Z,114.2
2018-06-04T17:49:50.013Z,103.3
2018-06-04T17:54:49.922Z,109.2
2018-06-04T17:59:49.958Z,97.5
2018-06-04T18:04:49.744Z,90
2018-06-04T18:09:49.957Z,69.2
2018-06-04T18:14:49.774Z,65
2018-06-04T18:19:49.876Z,60.8
2018-06-04T18:24:49.782Z,58.3
2018-06-04T18:29:49.921Z,50.8
2018-06-04T18:34:50.003Z,48.3
2018-06-04T18:39:50.018Z,40.8
2018-06-04T18:44:49.763Z,33.3
2018-06-04T18:49:49.829Z,33.3
2018-06-04T18:54:49.871Z,25
2018-06-04T18:59:49.840Z,25.8
2018-06-04T19:04:50.000Z,18.3
2018-06-04T19:09:49.756Z,17.5
2018-06-04T19:14:49.780Z,15
2018-06-04T19:19:49.723Z,12.5
2018-06-04T19:24:49.680Z,8.3
2018-06-04T19:29:49.849Z,6.7
2018-06-04T19:34:49.937Z,5
2018-06-04T19:39:49.803Z,3.3
2018-06-04T19:44:49.807Z,2.5
2018-06-04T19:49:50.015Z,1.7
2018-06-04T19:54:49.756Z,0.8
2018-06-04T19:59:49.859Z,0.8
2018-06-04T20:04:49.660Z,0
2018-06-04T20:09:49.705Z,0
2018-06-04T20:14:49.702Z,0
2018-06-04T20:19:49.703Z,0
2018-06-04T20:24:49.888Z,0
2018-06-04T20:29:49.829Z,0
2018-06-04T20:34:49.868Z,0
2018-06-04T20:39:49.697Z,0
2018-06-04T20:44:49.742Z,0
2018-06-04T20:49:49.661Z,0
2018-06-04T20:54:49.670Z,0
2018-06-04T20:59:49.576Z,0
2018-06-04T21:04:49.635Z,0
2018-06-04T21:09:49.680Z,0
2018-06-04T21:14:49.455Z,0
2018-06-04T21:19:49.692Z,0
2018-06-04T21:24:49.530Z,0
2018-06-04T21:29:49.765Z,0
2018-06-04T21:34:49.573Z,0
2018-06-04T21:39:49.637Z,0
2018-06-04T21:44:49.669Z,0
2018-06-04T21:49:49.591Z,0
2018-06-04T21:54:49.498Z,0
2018-06-04T21:59:49.444Z,0
2018-06-04T22:04:49.540Z,0
2018-06-04T22:09:49.423Z,0
2018-06-04T22:14:49.392Z,0
2018-06-04T22:19:49.501Z,0
2018-06-04T22:24:49.671Z,0
2018-06-04T22:29:49.715Z,0
2018-06-04T22:34:49.560Z,0
2018-06-04T22:39:49.655Z,0
2018-06-04T22:44:49.632Z,0
2018-06-04T22:49:49.419Z,0
2018-06-04T22:54:49.486Z,0
2018-06-04T22:59:49.394Z,0
2018-06-04T23:04:49.609Z,0
2018-06-04T23:09:49.405Z,0
2018-06-04T23:14:49.562Z,0
2018-06-04T23:19:49.389Z,0
2018-06-04T23:24:49.567Z,0
2018-06-04T23:29:49.429Z,0
2018-06-04T23:34:49.499Z,0
2018-06-04T23:39:49.528Z,0
2018-06-04T23:44:49.438Z,0
2018-06-04T23:49:49.283Z,0
2018-06-04T23:54:49.403Z,0
2018-06-04T23:59:49.563Z,0
